XBP weather

Bridgeport Municipal Airport
Bridgeport, Texas, United States

Public forecast

Using degrees Fahrenheit for public forecast. Weather courtesy of forecast.io.

METAR (pilot weather report)

Retrieved 2019/05/21 12:35 UTC (0 seconds ago):

KXBP 211235Z AUTO 20008KT 10SM SCT012 SCT090 BKN120 17/17 A2963 RMK AO2 P0001 T01730173

TAF (pilot weather forecast)

Closest forecast is Fort Worth Alliance Airport, 28.0 nm (51.9 km) ESE. Retrieved 2019/05/21 12:42 UTC (0 seconds ago):

TAF KAFW 211139Z 2112/2212 24017KT P6SM -SHRA VCTS BKN025CB TEMPO 2112/2114 3SM SHRA BKN025 FM211500 23015G25KT P6SM FEW300 FM220000 19011KT P6SM SKC